sensor_id;sensor_type;location;lat;lon;timestamp;P1;durP1;ratioP1;P2;durP2;ratioP2
24485;SDS011;13449;49.374;8.584;2024-01-07T00:00:19;24.58;;;10.27;;
24485;SDS011;13449;49.374;8.584;2024-01-07T00:02:46;32.17;;;10.18;;
24485;SDS011;13449;49.374;8.584;2024-01-07T00:05:13;24.05;;;8.52;;
24485;SDS011;13449;49.374;8.584;2024-01-07T00:07:40;24.13;;;8.00;;
24485;SDS011;13449;49.374;8.584;2024-01-07T00:10:06;23.65;;;7.70;;
24485;SDS011;13449;49.374;8.584;2024-01-07T00:12:33;31.58;;;9.10;;
24485;SDS011;13449;49.374;8.584;2024-01-07T00:15:00;18.42;;;7.65;;
24485;SDS011;13449;49.374;8.584;2024-01-07T00:17:27;24.00;;;7.05;;
24485;SDS011;13449;49.374;8.584;2024-01-07T00:19:54;27.02;;;8.68;;
24485;SDS011;13449;49.374;8.584;2024-01-07T00:22:21;19.40;;;7.57;;
24485;SDS011;13449;49.374;8.584;2024-01-07T00:24:51;22.25;;;7.47;;
24485;SDS011;13449;49.374;8.584;2024-01-07T00:27:17;26.30;;;8.75;;
24485;SDS011;13449;49.374;8.584;2024-01-07T00:29:46;30.90;;;9.85;;
24485;SDS011;13449;49.374;8.584;2024-01-07T00:32:12;23.70;;;7.65;;
24485;SDS011;13449;49.374;8.584;2024-01-07T00:34:41;28.85;;;9.05;;
24485;SDS011;13449;49.374;8.584;2024-01-07T00:37:08;25.40;;;9.23;;
24485;SDS011;13449;49.374;8.584;2024-01-07T00:39:35;20.13;;;7.72;;
24485;SDS011;13449;49.374;8.584;2024-01-07T00:42:01;26.52;;;8.25;;
24485;SDS011;13449;49.374;8.584;2024-01-07T00:44:28;21.75;;;8.02;;
24485;SDS011;13449;49.374;8.584;2024-01-07T00:46:54;25.08;;;8.43;;
24485;SDS011;13449;49.374;8.584;2024-01-07T00:49:23;25.30;;;9.10;;
24485;SDS011;13449;49.374;8.584;2024-01-07T00:51:50;24.48;;;9.30;;
24485;SDS011;13449;49.374;8.584;2024-01-07T00:54:16;28.00;;;9.43;;
24485;SDS011;13449;49.374;8.584;2024-01-07T00:56:45;22.15;;;9.93;;
24485;SDS011;13449;49.374;8.584;2024-01-07T00:59:12;27.20;;;9.85;;
24485;SDS011;13449;49.374;8.584;2024-01-07T01:01:38;24.70;;;10.00;;
24485;SDS011;13449;49.374;8.584;2024-01-07T01:04:07;31.50;;;10.82;;
24485;SDS011;13449;49.374;8.584;2024-01-07T01:06:34;27.60;;;10.40;;
24485;SDS011;13449;49.374;8.584;2024-01-07T01:09:01;26.45;;;9.77;;
24485;SDS011;13449;49.374;8.584;2024-01-07T01:11:27;23.40;;;7.80;;
24485;SDS011;13449;49.374;8.584;2024-01-07T01:13:54;23.52;;;9.52;;
24485;SDS011;13449;49.374;8.584;2024-01-07T01:16:20;18.20;;;7.53;;
24485;SDS011;13449;49.374;8.584;2024-01-07T01:18:50;20.83;;;7.57;;
24485;SDS011;13449;49.374;8.584;2024-01-07T01:21:17;17.30;;;6.53;;
24485;SDS011;13449;49.374;8.584;2024-01-07T01:23:44;21.40;;;8.10;;
24485;SDS011;13449;49.374;8.584;2024-01-07T01:26:10;18.42;;;7.47;;
24485;SDS011;13449;49.374;8.584;2024-01-07T01:28:37;23.70;;;7.63;;
24485;SDS011;13449;49.374;8.584;2024-01-07T01:31:04;30.60;;;8.35;;
24485;SDS011;13449;49.374;8.584;2024-01-07T01:33:31;17.73;;;7.15;;
24485;SDS011;13449;49.374;8.584;2024-01-07T01:35:58;18.67;;;7.15;;
24485;SDS011;13449;49.374;8.584;2024-01-07T01:38:25;19.52;;;7.35;;
24485;SDS011;13449;49.374;8.584;2024-01-07T01:40:53;23.88;;;7.78;;
24485;SDS011;13449;49.374;8.584;2024-01-07T01:43:24;14.82;;;6.20;;
24485;SDS011;13449;49.374;8.584;2024-01-07T01:45:57;15.48;;;6.68;;
24485;SDS011;13449;49.374;8.584;2024-01-07T01:48:25;18.52;;;6.45;;
24485;SDS011;13449;49.374;8.584;2024-01-07T01:50:53;17.67;;;6.13;;
24485;SDS011;13449;49.374;8.584;2024-01-07T01:53:29;16.42;;;5.93;;
24485;SDS011;13449;49.374;8.584;2024-01-07T01:55:57;14.82;;;5.80;;
24485;SDS011;13449;49.374;8.584;2024-01-07T01:58:28;15.93;;;5.32;;
24485;SDS011;13449;49.374;8.584;2024-01-07T02:00:56;11.55;;;6.18;;
24485;SDS011;13449;49.374;8.584;2024-01-07T02:03:23;16.95;;;5.55;;
24485;SDS011;13449;49.374;8.584;2024-01-07T02:05:52;15.20;;;5.72;;
24485;SDS011;13449;49.374;8.584;2024-01-07T02:08:19;10.68;;;5.18;;
24485;SDS011;13449;49.374;8.584;2024-01-07T02:10:48;8.40;;;4.10;;
24485;SDS011;13449;49.374;8.584;2024-01-07T02:13:17;8.82;;;4.90;;
24485;SDS011;13449;49.374;8.584;2024-01-07T02:15:44;9.65;;;3.92;;
24485;SDS011;13449;49.374;8.584;2024-01-07T02:18:10;8.63;;;4.43;;
24485;SDS011;13449;49.374;8.584;2024-01-07T02:20:37;8.88;;;4.32;;
24485;SDS011;13449;49.374;8.584;2024-01-07T02:23:05;12.77;;;4.65;;
24485;SDS011;13449;49.374;8.584;2024-01-07T02:25:36;13.25;;;4.00;;
24485;SDS011;13449;49.374;8.584;2024-01-07T02:28:03;7.90;;;3.97;;
24485;SDS011;13449;49.374;8.584;2024-01-07T02:30:30;11.48;;;4.82;;
24485;SDS011;13449;49.374;8.584;2024-01-07T02:33:00;14.50;;;4.82;;
24485;SDS011;13449;49.374;8.584;2024-01-07T02:35:28;11.20;;;3.60;;
24485;SDS011;13449;49.374;8.584;2024-01-07T02:37:56;9.45;;;4.05;;
24485;SDS011;13449;49.374;8.584;2024-01-07T02:43:08;7.50;;;3.53;;
24485;SDS011;13449;49.374;8.584;2024-01-07T02:45:37;6.22;;;3.55;;
24485;SDS011;13449;49.374;8.584;2024-01-07T02:48:03;8.88;;;3.63;;
24485;SDS011;13449;49.374;8.584;2024-01-07T02:50:33;10.63;;;4.15;;
24485;SDS011;13449;49.374;8.584;2024-01-07T02:53:01;12.55;;;3.90;;
24485;SDS011;13449;49.374;8.584;2024-01-07T02:55:31;7.28;;;4.05;;
24485;SDS011;13449;49.374;8.584;2024-01-07T02:57:57;7.32;;;3.80;;
24485;SDS011;13449;49.374;8.584;2024-01-07T03:00:24;6.95;;;3.95;;
24485;SDS011;13449;49.374;8.584;2024-01-07T03:02:51;11.27;;;4.38;;
24485;SDS011;13449;49.374;8.584;2024-01-07T03:05:17;14.43;;;5.88;;
24485;SDS011;13449;49.374;8.584;2024-01-07T03:07:44;11.32;;;5.18;;
24485;SDS011;13449;49.374;8.584;2024-01-07T03:10:11;10.43;;;6.15;;
24485;SDS011;13449;49.374;8.584;2024-01-07T03:12:39;12.73;;;5.55;;
24485;SDS011;13449;49.374;8.584;2024-01-07T03:15:06;10.65;;;6.05;;
24485;SDS011;13449;49.374;8.584;2024-01-07T03:17:35;12.88;;;7.15;;
24485;SDS011;13449;49.374;8.584;2024-01-07T03:20:02;12.35;;;6.90;;
24485;SDS011;13449;49.374;8.584;2024-01-07T03:22:29;9.95;;;5.97;;
24485;SDS011;13449;49.374;8.584;2024-01-07T03:24:56;8.80;;;5.30;;
24485;SDS011;13449;49.374;8.584;2024-01-07T03:27:22;8.90;;;4.20;;
24485;SDS011;13449;49.374;8.584;2024-01-07T03:29:49;7.55;;;3.97;;
24485;SDS011;13449;49.374;8.584;2024-01-07T03:32:15;12.57;;;4.40;;
24485;SDS011;13449;49.374;8.584;2024-01-07T03:34:42;8.73;;;4.55;;
24485;SDS011;13449;49.374;8.584;2024-01-07T03:37:09;11.65;;;4.22;;
24485;SDS011;13449;49.374;8.584;2024-01-07T03:39:35;10.43;;;4.72;;
24485;SDS011;13449;49.374;8.584;2024-01-07T03:42:02;8.57;;;4.38;;
24485;SDS011;13449;49.374;8.584;2024-01-07T03:44:28;8.13;;;4.55;;
24485;SDS011;13449;49.374;8.584;2024-01-07T03:46:55;9.15;;;3.92;;
24485;SDS011;13449;49.374;8.584;2024-01-07T03:49:21;8.77;;;4.53;;
24485;SDS011;13449;49.374;8.584;2024-01-07T03:51:48;10.98;;;5.13;;
24485;SDS011;13449;49.374;8.584;2024-01-07T03:54:15;11.38;;;4.70;;
24485;SDS011;13449;49.374;8.584;2024-01-07T03:56:41;11.82;;;4.75;;
24485;SDS011;13449;49.374;8.584;2024-01-07T03:59:08;11.52;;;5.78;;
24485;SDS011;13449;49.374;8.584;2024-01-07T04:01:34;12.73;;;5.20;;
24485;SDS011;13449;49.374;8.584;2024-01-07T04:04:01;11.10;;;4.95;;
24485;SDS011;13449;49.374;8.584;2024-01-07T04:06:28;11.15;;;4.55;;
24485;SDS011;13449;49.374;8.584;2024-01-07T04:08:57;11.07;;;5.07;;
24485;SDS011;13449;49.374;8.584;2024-01-07T04:11:24;13.40;;;5.43;;
24485;SDS011;13449;49.374;8.584;2024-01-07T04:13:50;10.45;;;5.38;;
24485;SDS011;13449;49.374;8.584;2024-01-07T04:16:20;14.63;;;5.90;;
24485;SDS011;13449;49.374;8.584;2024-01-07T04:18:47;13.65;;;7.43;;
24485;SDS011;13449;49.374;8.584;2024-01-07T04:21:19;14.00;;;7.40;;
24485;SDS011;13449;49.374;8.584;2024-01-07T04:23:45;12.80;;;5.55;;
24485;SDS011;13449;49.374;8.584;2024-01-07T04:26:12;13.60;;;6.82;;
24485;SDS011;13449;49.374;8.584;2024-01-07T04:28:41;12.15;;;6.78;;
24485;SDS011;13449;49.374;8.584;2024-01-07T04:31:08;14.85;;;6.07;;
24485;SDS011;13449;49.374;8.584;2024-01-07T04:33:35;13.70;;;6.13;;
24485;SDS011;13449;49.374;8.584;2024-01-07T04:36:02;11.05;;;5.53;;
24485;SDS011;13449;49.374;8.584;2024-01-07T04:38:30;14.65;;;6.18;;
24485;SDS011;13449;49.374;8.584;2024-01-07T04:40:57;12.30;;;5.22;;
24485;SDS011;13449;49.374;8.584;2024-01-07T04:43:23;9.40;;;4.50;;
24485;SDS011;13449;49.374;8.584;2024-01-07T04:45:50;11.00;;;4.82;;
24485;SDS011;13449;49.374;8.584;2024-01-07T04:48:16;13.82;;;5.43;;
24485;SDS011;13449;49.374;8.584;2024-01-07T04:50:45;13.50;;;5.35;;
24485;SDS011;13449;49.374;8.584;2024-01-07T04:53:17;9.73;;;4.80;;
24485;SDS011;13449;49.374;8.584;2024-01-07T04:55:43;11.35;;;5.13;;
24485;SDS011;13449;49.374;8.584;2024-01-07T04:58:12;14.05;;;5.25;;
24485;SDS011;13449;49.374;8.584;2024-01-07T05:00:38;11.10;;;5.80;;
24485;SDS011;13449;49.374;8.584;2024-01-07T05:03:05;8.70;;;5.30;;
24485;SDS011;13449;49.374;8.584;2024-01-07T05:05:32;12.25;;;5.50;;
24485;SDS011;13449;49.374;8.584;2024-01-07T05:08:02;9.35;;;4.68;;
24485;SDS011;13449;49.374;8.584;2024-01-07T05:10:28;10.98;;;3.88;;
24485;SDS011;13449;49.374;8.584;2024-01-07T05:12:55;7.45;;;3.95;;
24485;SDS011;13449;49.374;8.584;2024-01-07T05:15:22;8.35;;;3.83;;
24485;SDS011;13449;49.374;8.584;2024-01-07T05:17:48;9.23;;;4.80;;
24485;SDS011;13449;49.374;8.584;2024-01-07T05:20:20;7.68;;;4.13;;
24485;SDS011;13449;49.374;8.584;2024-01-07T05:22:47;10.38;;;5.20;;
24485;SDS011;13449;49.374;8.584;2024-01-07T05:25:13;8.93;;;4.30;;
24485;SDS011;13449;49.374;8.584;2024-01-07T05:27:40;10.13;;;4.43;;
24485;SDS011;13449;49.374;8.584;2024-01-07T05:30:07;8.52;;;4.40;;
24485;SDS011;13449;49.374;8.584;2024-01-07T05:32:34;7.40;;;3.72;;
24485;SDS011;13449;49.374;8.584;2024-01-07T05:35:01;8.32;;;4.70;;
24485;SDS011;13449;49.374;8.584;2024-01-07T05:37:27;8.93;;;4.10;;
24485;SDS011;13449;49.374;8.584;2024-01-07T05:39:54;8.18;;;4.03;;
24485;SDS011;13449;49.374;8.584;2024-01-07T05:42:20;9.00;;;4.72;;
24485;SDS011;13449;49.374;8.584;2024-01-07T05:44:49;14.00;;;5.60;;
24485;SDS011;13449;49.374;8.584;2024-01-07T05:47:15;14.93;;;5.60;;
24485;SDS011;13449;49.374;8.584;2024-01-07T05:49:43;11.98;;;6.38;;
24485;SDS011;13449;49.374;8.584;2024-01-07T05:52:10;13.60;;;5.95;;
24485;SDS011;13449;49.374;8.584;2024-01-07T05:54:36;17.15;;;6.70;;
24485;SDS011;13449;49.374;8.584;2024-01-07T05:57:03;14.98;;;7.15;;
24485;SDS011;13449;49.374;8.584;2024-01-07T05:59:29;11.38;;;5.93;;
24485;SDS011;13449;49.374;8.584;2024-01-07T06:01:59;11.70;;;5.82;;
24485;SDS011;13449;49.374;8.584;2024-01-07T06:04:26;9.20;;;4.47;;
24485;SDS011;13449;49.374;8.584;2024-01-07T06:06:52;15.43;;;5.93;;
24485;SDS011;13449;49.374;8.584;2024-01-07T06:09:22;14.88;;;5.45;;
24485;SDS011;13449;49.374;8.584;2024-01-07T06:11:51;9.13;;;4.78;;
24485;SDS011;13449;49.374;8.584;2024-01-07T06:14:17;16.70;;;5.45;;
24485;SDS011;13449;49.374;8.584;2024-01-07T06:16:44;14.60;;;5.30;;
24485;SDS011;13449;49.374;8.584;2024-01-07T06:19:11;11.40;;;5.03;;
24485;SDS011;13449;49.374;8.584;2024-01-07T06:21:41;12.18;;;5.75;;
24485;SDS011;13449;49.374;8.584;2024-01-07T06:24:10;11.13;;;5.22;;
24485;SDS011;13449;49.374;8.584;2024-01-07T06:26:37;18.02;;;5.25;;
24485;SDS011;13449;49.374;8.584;2024-01-07T06:29:03;13.55;;;4.85;;
24485;SDS011;13449;49.374;8.584;2024-01-07T06:31:33;13.55;;;4.88;;
24485;SDS011;13449;49.374;8.584;2024-01-07T06:34:00;15.00;;;5.78;;
24485;SDS011;13449;49.374;8.584;2024-01-07T06:36:27;13.63;;;5.38;;
24485;SDS011;13449;49.374;8.584;2024-01-07T06:38:54;17.05;;;6.30;;
24485;SDS011;13449;49.374;8.584;2024-01-07T06:41:21;28.17;;;7.95;;
24485;SDS011;13449;49.374;8.584;2024-01-07T06:43:47;15.25;;;7.30;;
24485;SDS011;13449;49.374;8.584;2024-01-07T06:46:16;18.67;;;7.10;;
24485;SDS011;13449;49.374;8.584;2024-01-07T06:48:42;16.77;;;7.35;;
24485;SDS011;13449;49.374;8.584;2024-01-07T06:51:17;20.60;;;8.00;;
24485;SDS011;13449;49.374;8.584;2024-01-07T06:53:44;20.38;;;7.80;;
24485;SDS011;13449;49.374;8.584;2024-01-07T06:56:10;15.02;;;7.35;;
24485;SDS011;13449;49.374;8.584;2024-01-07T06:58:37;16.80;;;6.93;;
24485;SDS011;13449;49.374;8.584;2024-01-07T07:01:06;16.38;;;7.20;;
24485;SDS011;13449;49.374;8.584;2024-01-07T07:06:03;11.02;;;5.80;;
24485;SDS011;13449;49.374;8.584;2024-01-07T07:08:29;12.60;;;6.43;;
24485;SDS011;13449;49.374;8.584;2024-01-07T07:10:56;15.65;;;6.45;;
24485;SDS011;13449;49.374;8.584;2024-01-07T07:13:22;13.32;;;5.97;;
24485;SDS011;13449;49.374;8.584;2024-01-07T07:15:49;15.13;;;6.50;;
24485;SDS011;13449;49.374;8.584;2024-01-07T07:18:15;17.23;;;6.90;;
24485;SDS011;13449;49.374;8.584;2024-01-07T07:20:42;19.02;;;6.15;;
24485;SDS011;13449;49.374;8.584;2024-01-07T07:23:09;15.07;;;6.22;;
24485;SDS011;13449;49.374;8.584;2024-01-07T07:25:36;19.38;;;6.80;;
24485;SDS011;13449;49.374;8.584;2024-01-07T07:28:04;15.02;;;6.43;;
24485;SDS011;13449;49.374;8.584;2024-01-07T07:30:31;15.02;;;7.15;;
24485;SDS011;13449;49.374;8.584;2024-01-07T07:32:58;17.48;;;6.75;;
24485;SDS011;13449;49.374;8.584;2024-01-07T07:35:24;16.08;;;6.72;;
24485;SDS011;13449;49.374;8.584;2024-01-07T07:37:51;16.13;;;7.18;;
24485;SDS011;13449;49.374;8.584;2024-01-07T07:40:17;16.50;;;6.68;;
24485;SDS011;13449;49.374;8.584;2024-01-07T07:42:46;21.58;;;7.78;;
24485;SDS011;13449;49.374;8.584;2024-01-07T07:45:12;18.00;;;6.32;;
24485;SDS011;13449;49.374;8.584;2024-01-07T07:47:44;12.13;;;6.30;;
24485;SDS011;13449;49.374;8.584;2024-01-07T07:50:11;19.80;;;6.90;;
24485;SDS011;13449;49.374;8.584;2024-01-07T07:52:38;15.70;;;8.02;;
24485;SDS011;13449;49.374;8.584;2024-01-07T07:55:07;26.42;;;9.48;;
24485;SDS011;13449;49.374;8.584;2024-01-07T07:57:35;18.90;;;9.80;;
24485;SDS011;13449;49.374;8.584;2024-01-07T08:00:02;21.48;;;9.80;;
24485;SDS011;13449;49.374;8.584;2024-01-07T08:02:32;22.98;;;9.35;;
24485;SDS011;13449;49.374;8.584;2024-01-07T08:04:59;23.70;;;8.93;;
24485;SDS011;13449;49.374;8.584;2024-01-07T08:07:25;14.27;;;7.05;;
24485;SDS011;13449;49.374;8.584;2024-01-07T08:09:52;17.20;;;8.15;;
24485;SDS011;13449;49.374;8.584;2024-01-07T08:12:19;21.67;;;9.38;;
24485;SDS011;13449;49.374;8.584;2024-01-07T08:14:48;20.50;;;8.65;;
24485;SDS011;13449;49.374;8.584;2024-01-07T08:17:14;21.20;;;8.90;;
24485;SDS011;13449;49.374;8.584;2024-01-07T08:19:43;23.77;;;11.35;;
24485;SDS011;13449;49.374;8.584;2024-01-07T08:22:10;17.73;;;8.90;;
24485;SDS011;13449;49.374;8.584;2024-01-07T08:24:37;20.98;;;9.73;;
24485;SDS011;13449;49.374;8.584;2024-01-07T08:27:03;23.52;;;9.40;;
24485;SDS011;13449;49.374;8.584;2024-01-07T08:29:31;23.73;;;9.20;;
24485;SDS011;13449;49.374;8.584;2024-01-07T08:31:57;25.25;;;9.13;;
24485;SDS011;13449;49.374;8.584;2024-01-07T08:34:24;28.42;;;10.68;;
24485;SDS011;13449;49.374;8.584;2024-01-07T08:36:52;25.00;;;10.05;;
24485;SDS011;13449;49.374;8.584;2024-01-07T08:39:20;31.63;;;9.90;;
24485;SDS011;13449;49.374;8.584;2024-01-07T08:41:49;32.75;;;10.98;;
24485;SDS011;13449;49.374;8.584;2024-01-07T08:44:19;30.30;;;11.65;;
24485;SDS011;13449;49.374;8.584;2024-01-07T08:46:46;31.45;;;11.35;;
24485;SDS011;13449;49.374;8.584;2024-01-07T08:49:15;29.10;;;12.70;;
24485;SDS011;13449;49.374;8.584;2024-01-07T08:51:41;32.35;;;11.63;;
24485;SDS011;13449;49.374;8.584;2024-01-07T08:54:08;29.40;;;11.13;;
24485;SDS011;13449;49.374;8.584;2024-01-07T08:56:35;26.92;;;10.80;;
24485;SDS011;13449;49.374;8.584;2024-01-07T08:59:01;23.58;;;10.73;;
24485;SDS011;13449;49.374;8.584;2024-01-07T09:01:30;25.05;;;11.40;;
24485;SDS011;13449;49.374;8.584;2024-01-07T09:03:56;19.48;;;9.48;;
24485;SDS011;13449;49.374;8.584;2024-01-07T09:06:23;20.77;;;10.35;;
24485;SDS011;13449;49.374;8.584;2024-01-07T09:08:50;22.52;;;9.68;;
24485;SDS011;13449;49.374;8.584;2024-01-07T09:11:19;27.90;;;10.45;;
24485;SDS011;13449;49.374;8.584;2024-01-07T09:13:48;20.42;;;10.48;;
24485;SDS011;13449;49.374;8.584;2024-01-07T09:16:16;23.58;;;10.23;;
24485;SDS011;13449;49.374;8.584;2024-01-07T09:18:43;23.55;;;9.75;;
24485;SDS011;13449;49.374;8.584;2024-01-07T09:21:12;21.02;;;9.30;;
24485;SDS011;13449;49.374;8.584;2024-01-07T09:23:40;21.38;;;10.25;;
24485;SDS011;13449;49.374;8.584;2024-01-07T09:26:07;25.10;;;10.00;;
24485;SDS011;13449;49.374;8.584;2024-01-07T09:28:33;19.70;;;9.32;;
24485;SDS011;13449;49.374;8.584;2024-01-07T09:31:00;21.10;;;9.70;;
24485;SDS011;13449;49.374;8.584;2024-01-07T09:33:29;15.55;;;9.35;;
24485;SDS011;13449;49.374;8.584;2024-01-07T09:35:55;21.75;;;9.63;;
24485;SDS011;13449;49.374;8.584;2024-01-07T09:38:35;19.27;;;9.13;;
24485;SDS011;13449;49.374;8.584;2024-01-07T09:41:04;18.08;;;8.65;;
24485;SDS011;13449;49.374;8.584;2024-01-07T09:43:31;20.17;;;9.38;;
24485;SDS011;13449;49.374;8.584;2024-01-07T09:46:02;22.92;;;9.85;;
24485;SDS011;13449;49.374;8.584;2024-01-07T09:48:29;21.50;;;9.40;;
24485;SDS011;13449;49.374;8.584;2024-01-07T09:50:57;21.60;;;8.52;;
24485;SDS011;13449;49.374;8.584;2024-01-07T09:53:25;18.83;;;8.20;;
24485;SDS011;13449;49.374;8.584;2024-01-07T09:55:52;22.83;;;8.30;;
24485;SDS011;13449;49.374;8.584;2024-01-07T09:58:32;18.27;;;8.63;;
24485;SDS011;13449;49.374;8.584;2024-01-07T10:00:59;18.17;;;8.05;;
24485;SDS011;13449;49.374;8.584;2024-01-07T10:03:26;16.33;;;7.80;;
24485;SDS011;13449;49.374;8.584;2024-01-07T10:05:52;17.90;;;7.65;;
24485;SDS011;13449;49.374;8.584;2024-01-07T10:08:19;15.35;;;7.28;;
24485;SDS011;13449;49.374;8.584;2024-01-07T10:10:48;15.43;;;7.15;;
24485;SDS011;13449;49.374;8.584;2024-01-07T10:13:14;17.63;;;7.68;;
24485;SDS011;13449;49.374;8.584;2024-01-07T10:15:41;19.67;;;7.80;;
24485;SDS011;13449;49.374;8.584;2024-01-07T10:18:08;16.60;;;7.70;;
24485;SDS011;13449;49.374;8.584;2024-01-07T10:20:35;15.55;;;7.03;;
24485;SDS011;13449;49.374;8.584;2024-01-07T10:23:02;16.17;;;8.07;;
24485;SDS011;13449;49.374;8.584;2024-01-07T10:25:32;15.15;;;7.43;;
24485;SDS011;13449;49.374;8.584;2024-01-07T10:28:01;12.35;;;5.93;;
24485;SDS011;13449;49.374;8.584;2024-01-07T10:30:29;10.23;;;5.53;;
24485;SDS011;13449;49.374;8.584;2024-01-07T10:33:00;12.77;;;6.40;;
24485;SDS011;13449;49.374;8.584;2024-01-07T10:35:32;16.25;;;7.00;;
24485;SDS011;13449;49.374;8.584;2024-01-07T10:38:01;14.50;;;5.35;;
24485;SDS011;13449;49.374;8.584;2024-01-07T10:40:28;9.65;;;4.95;;
24485;SDS011;13449;49.374;8.584;2024-01-07T10:43:00;13.60;;;6.85;;
24485;SDS011;13449;49.374;8.584;2024-01-07T10:45:28;14.15;;;5.80;;
24485;SDS011;13449;49.374;8.584;2024-01-07T10:47:55;12.88;;;5.88;;
24485;SDS011;13449;49.374;8.584;2024-01-07T10:50:28;8.27;;;4.97;;
24485;SDS011;13449;49.374;8.584;2024-01-07T10:53:01;14.43;;;6.03;;
24485;SDS011;13449;49.374;8.584;2024-01-07T10:55:33;22.02;;;8.93;;
24485;SDS011;13449;49.374;8.584;2024-01-07T10:58:03;14.20;;;6.32;;
24485;SDS011;13449;49.374;8.584;2024-01-07T11:00:30;9.93;;;4.68;;
24485;SDS011;13449;49.374;8.584;2024-01-07T11:03:09;9.10;;;4.07;;
24485;SDS011;13449;49.374;8.584;2024-01-07T11:05:44;4.55;;;2.67;;
24485;SDS011;13449;49.374;8.584;2024-01-07T11:08:26;4.50;;;2.22;;
24485;SDS011;13449;49.374;8.584;2024-01-07T11:11:15;3.92;;;2.63;;
24485;SDS011;13449;49.374;8.584;2024-01-07T11:13:44;5.72;;;2.30;;
24485;SDS011;13449;49.374;8.584;2024-01-07T11:16:12;2.70;;;1.70;;
24485;SDS011;13449;49.374;8.584;2024-01-07T11:18:40;8.68;;;4.80;;
24485;SDS011;13449;49.374;8.584;2024-01-07T11:21:12;11.18;;;5.75;;
24485;SDS011;13449;49.374;8.584;2024-01-07T11:23:47;9.65;;;5.00;;
24485;SDS011;13449;49.374;8.584;2024-01-07T11:26:14;9.68;;;5.30;;
24485;SDS011;13449;49.374;8.584;2024-01-07T11:31:17;10.15;;;5.22;;
24485;SDS011;13449;49.374;8.584;2024-01-07T11:33:46;12.20;;;5.63;;
24485;SDS011;13449;49.374;8.584;2024-01-07T11:36:14;8.10;;;4.05;;
24485;SDS011;13449;49.374;8.584;2024-01-07T11:38:42;11.77;;;4.68;;
24485;SDS011;13449;49.374;8.584;2024-01-07T11:41:20;10.55;;;5.70;;
24485;SDS011;13449;49.374;8.584;2024-01-07T11:46:20;5.90;;;3.70;;
24485;SDS011;13449;49.374;8.584;2024-01-07T11:48:48;12.10;;;4.07;;
24485;SDS011;13449;49.374;8.584;2024-01-07T11:51:16;13.05;;;5.20;;
24485;SDS011;13449;49.374;8.584;2024-01-07T11:53:44;9.63;;;4.70;;
24485;SDS011;13449;49.374;8.584;2024-01-07T11:56:12;6.00;;;3.88;;
24485;SDS011;13449;49.374;8.584;2024-01-07T11:58:41;5.38;;;3.38;;
24485;SDS011;13449;49.374;8.584;2024-01-07T12:01:08;7.07;;;4.47;;
24485;SDS011;13449;49.374;8.584;2024-01-07T12:03:37;6.70;;;4.05;;
24485;SDS011;13449;49.374;8.584;2024-01-07T12:06:07;7.28;;;4.40;;
24485;SDS011;13449;49.374;8.584;2024-01-07T12:08:34;8.52;;;4.55;;
24485;SDS011;13449;49.374;8.584;2024-01-07T12:11:01;6.38;;;4.07;;
24485;SDS011;13449;49.374;8.584;2024-01-07T12:13:27;7.93;;;4.13;;
24485;SDS011;13449;49.374;8.584;2024-01-07T12:15:54;11.82;;;4.97;;
24485;SDS011;13449;49.374;8.584;2024-01-07T12:18:21;7.35;;;4.22;;
24485;SDS011;13449;49.374;8.584;2024-01-07T12:20:56;6.93;;;4.60;;
24485;SDS011;13449;49.374;8.584;2024-01-07T12:23:26;7.68;;;4.28;;
24485;SDS011;13449;49.374;8.584;2024-01-07T12:25:55;5.75;;;3.72;;
24485;SDS011;13449;49.374;8.584;2024-01-07T12:28:33;7.18;;;4.30;;
24485;SDS011;13449;49.374;8.584;2024-01-07T12:31:00;10.48;;;4.38;;
24485;SDS011;13449;49.374;8.584;2024-01-07T12:33:27;10.20;;;4.85;;
24485;SDS011;13449;49.374;8.584;2024-01-07T12:35:55;10.43;;;5.28;;
24485;SDS011;13449;49.374;8.584;2024-01-07T12:38:23;8.05;;;4.25;;
24485;SDS011;13449;49.374;8.584;2024-01-07T12:40:52;11.00;;;4.82;;
24485;SDS011;13449;49.374;8.584;2024-01-07T12:43:22;10.65;;;5.22;;
24485;SDS011;13449;49.374;8.584;2024-01-07T12:45:49;8.98;;;4.68;;
24485;SDS011;13449;49.374;8.584;2024-01-07T12:48:18;10.05;;;5.07;;
24485;SDS011;13449;49.374;8.584;2024-01-07T12:50:45;8.65;;;4.72;;
24485;SDS011;13449;49.374;8.584;2024-01-07T12:53:14;8.98;;;4.75;;
24485;SDS011;13449;49.374;8.584;2024-01-07T12:55:41;7.70;;;4.28;;
24485;SDS011;13449;49.374;8.584;2024-01-07T12:58:07;8.95;;;4.50;;
24485;SDS011;13449;49.374;8.584;2024-01-07T13:00:34;9.93;;;4.85;;
24485;SDS011;13449;49.374;8.584;2024-01-07T13:03:01;11.85;;;5.47;;
24485;SDS011;13449;49.374;8.584;2024-01-07T13:05:30;10.25;;;5.07;;
24485;SDS011;13449;49.374;8.584;2024-01-07T13:07:57;10.20;;;4.68;;
24485;SDS011;13449;49.374;8.584;2024-01-07T13:10:24;8.10;;;4.57;;
24485;SDS011;13449;49.374;8.584;2024-01-07T13:12:53;14.18;;;5.07;;
24485;SDS011;13449;49.374;8.584;2024-01-07T13:15:32;11.38;;;5.00;;
24485;SDS011;13449;49.374;8.584;2024-01-07T13:17:59;9.55;;;4.82;;
24485;SDS011;13449;49.374;8.584;2024-01-07T13:20:26;7.80;;;4.30;;
24485;SDS011;13449;49.374;8.584;2024-01-07T13:22:53;12.10;;;5.13;;
24485;SDS011;13449;49.374;8.584;2024-01-07T13:25:19;10.65;;;4.40;;
24485;SDS011;13449;49.374;8.584;2024-01-07T13:27:46;13.18;;;5.28;;
24485;SDS011;13449;49.374;8.584;2024-01-07T13:30:12;15.82;;;6.00;;
24485;SDS011;13449;49.374;8.584;2024-01-07T13:32:39;13.63;;;5.47;;
24485;SDS011;13449;49.374;8.584;2024-01-07T13:35:06;12.68;;;5.53;;
24485;SDS011;13449;49.374;8.584;2024-01-07T13:37:36;10.43;;;5.28;;
24485;SDS011;13449;49.374;8.584;2024-01-07T13:40:03;14.00;;;5.45;;
24485;SDS011;13449;49.374;8.584;2024-01-07T13:42:30;10.63;;;5.22;;
24485;SDS011;13449;49.374;8.584;2024-01-07T13:44:57;8.88;;;4.40;;
24485;SDS011;13449;49.374;8.584;2024-01-07T13:47:24;10.88;;;5.50;;
24485;SDS011;13449;49.374;8.584;2024-01-07T13:49:51;9.80;;;4.60;;
24485;SDS011;13449;49.374;8.584;2024-01-07T13:52:17;7.63;;;4.20;;
24485;SDS011;13449;49.374;8.584;2024-01-07T13:54:44;13.00;;;5.82;;
24485;SDS011;13449;49.374;8.584;2024-01-07T13:57:11;9.20;;;4.55;;
24485;SDS011;13449;49.374;8.584;2024-01-07T13:59:39;8.93;;;4.80;;
24485;SDS011;13449;49.374;8.584;2024-01-07T14:02:06;9.70;;;4.75;;
24485;SDS011;13449;49.374;8.584;2024-01-07T14:04:34;13.93;;;5.38;;
24485;SDS011;13449;49.374;8.584;2024-01-07T14:07:00;10.90;;;5.40;;
24485;SDS011;13449;49.374;8.584;2024-01-07T14:09:29;8.95;;;5.03;;
24485;SDS011;13449;49.374;8.584;2024-01-07T14:11:58;11.35;;;5.35;;
24485;SDS011;13449;49.374;8.584;2024-01-07T14:14:28;9.50;;;4.85;;
24485;SDS011;13449;49.374;8.584;2024-01-07T14:16:55;12.35;;;4.93;;
24485;SDS011;13449;49.374;8.584;2024-01-07T14:19:21;11.65;;;5.18;;
24485;SDS011;13449;49.374;8.584;2024-01-07T14:21:48;7.93;;;4.35;;
24485;SDS011;13449;49.374;8.584;2024-01-07T14:24:15;11.00;;;5.35;;
24485;SDS011;13449;49.374;8.584;2024-01-07T14:26:42;9.65;;;5.07;;
24485;SDS011;13449;49.374;8.584;2024-01-07T14:29:11;14.60;;;6.13;;
24485;SDS011;13449;49.374;8.584;2024-01-07T14:31:43;7.35;;;4.38;;
24485;SDS011;13449;49.374;8.584;2024-01-07T14:34:12;13.95;;;5.30;;
24485;SDS011;13449;49.374;8.584;2024-01-07T14:36:39;9.52;;;4.78;;
24485;SDS011;13449;49.374;8.584;2024-01-07T14:39:10;8.45;;;4.35;;
24485;SDS011;13449;49.374;8.584;2024-01-07T14:41:36;9.90;;;5.25;;
24485;SDS011;13449;49.374;8.584;2024-01-07T14:44:05;6.78;;;3.97;;
24485;SDS011;13449;49.374;8.584;2024-01-07T14:46:37;9.40;;;4.88;;
24485;SDS011;13449;49.374;8.584;2024-01-07T14:49:04;8.35;;;4.05;;
24485;SDS011;13449;49.374;8.584;2024-01-07T14:51:31;8.88;;;4.60;;